Time;durP1;ratioP1;P1;durP2;ratioP2;P2;SDS_P1;SDS_P2;PMS_P1;PMS_P2;Temp;Humidity;BMP_temperature;BMP_pressure;BME280_temperature;BME280_humidity;BME280_pressure;Samples;Min_cycle;Max_cycle;Signal;HPM_P1;HPM_P2
2023/11/30 00:01:33;;;;;;;76.85;31.42;;;;;;;-6.66;84.61;99289.07;1749556;82;25540;-52
2023/11/30 00:04:01;;;;;;;78.87;32.28;;;;;;;-6.69;84.73;99288.19;1749538;82;25528;-51
2023/11/30 00:06:28;;;;;;;83.60;32.45;;;;;;;-6.70;84.76;99281.34;1749602;82;25621;-48
2023/11/30 00:08:57;;;;;;;78.97;32.17;;;;;;;-6.72;84.63;99288.13;1749728;82;27226;-47
2023/11/30 00:11:24;;;;;;;;;;;;;;;-6.75;84.35;99284.63;1752101;81;25520;-48
2023/11/30 00:13:51;;;;;;;76.87;31.00;;;;;;;-6.75;84.44;99288.56;1749598;81;25411;-52
2023/11/30 00:16:18;;;;;;;71.22;30.08;;;;;;;-6.77;84.49;99288.78;1749560;82;25639;-48
2023/11/30 00:18:45;;;;;;;84.25;32.67;;;;;;;-6.78;84.57;99287.69;1749598;82;25541;-47
2023/11/30 00:21:12;;;;;;;73.80;30.27;;;;;;;-6.80;84.50;99285.80;1749556;82;27733;-50
2023/11/30 00:23:40;;;;;;;87.55;33.88;;;;;;;-6.81;84.26;99290.75;1749409;81;25976;-47
2023/11/30 00:26:06;;;;;;;74.90;32.95;;;;;;;-6.82;84.24;99298.37;1724428;82;25634;-48
2023/11/30 00:28:34;;;;;;;77.62;33.42;;;;;;;-6.86;84.29;99292.74;1749516;82;25687;-46
2023/11/30 00:31:01;;;;;;;83.22;33.60;;;;;;;-6.86;84.49;99289.29;1749612;82;25617;-47
2023/11/30 00:33:27;;;;;;;77.47;31.57;;;;;;;-6.89;84.54;99285.29;1749577;82;27679;-47
2023/11/30 00:35:54;;;;;;;83.97;33.45;;;;;;;-6.91;84.65;99286.02;1749266;82;25626;-48
2023/11/30 00:38:20;;;;;;;89.47;35.95;;;;;;;-6.93;84.62;99285.41;1748364;82;26009;-47
2023/11/30 00:40:48;;;;;;;94.37;36.35;;;;;;;-6.93;84.70;99288.05;1749163;82;26121;-48
2023/11/30 00:43:16;;;;;;;91.53;33.70;;;;;;;-6.95;84.76;99290.92;1749529;82;25550;-49
2023/11/30 00:45:44;;;;;;;87.92;35.50;;;;;;;-6.95;84.76;99286.98;1749474;82;27177;-47
2023/11/30 00:48:11;;;;;;;89.37;35.45;;;;;;;-6.98;84.87;99274.27;1749247;82;25581;-47
2023/11/30 00:50:39;;;;;;;84.15;34.58;;;;;;;-6.97;84.79;99275.05;1749489;82;25456;-48
2023/11/30 00:53:06;;;;;;;83.27;35.03;;;;;;;-6.97;84.91;99271.11;1749475;82;25910;-48
2023/11/30 00:55:33;;;;;;;85.35;35.90;;;;;;;-6.98;84.81;99273.44;1749565;82;25408;-47
2023/11/30 00:58:00;;;;;;;88.37;36.58;;;;;;;-7.00;84.65;99272.37;1748292;82;27722;-47
2023/11/30 01:00:27;;;;;;;79.95;34.85;;;;;;;-7.02;84.70;99273.07;1748184;82;25981;-47
2023/11/30 01:02:55;;;;;;;89.42;35.10;;;;;;;-7.04;84.76;99272.50;1749333;82;25488;-47
2023/11/30 01:05:22;;;;;;;82.37;33.28;;;;;;;-7.04;84.91;99273.02;1749271;82;26195;-46
2023/11/30 01:07:49;;;;;;;90.90;35.15;;;;;;;-7.06;84.97;99267.97;1749654;82;25533;-48
2023/11/30 01:10:17;;;;;;;94.85;37.63;;;;;;;-7.07;85.03;99261.09;1749548;82;28474;-48
2023/11/30 01:12:44;;;;;;;96.92;36.00;;;;;;;-7.05;85.19;99270.08;1749453;82;25633;-49
2023/11/30 01:15:12;;;;;;;88.33;36.00;;;;;;;-7.06;85.40;99263.23;1749522;82;25433;-48
2023/11/30 01:17:38;;;;;;;93.05;34.75;;;;;;;-7.05;85.25;99262.20;1749473;81;25623;-47
2023/11/30 01:20:08;;;;;;;81.53;34.45;;;;;;;-7.06;85.36;99257.98;1749550;82;25382;-46
2023/11/30 01:22:34;;;;;;;92.15;35.08;;;;;;;-7.06;85.41;99265.34;1746151;82;27543;-48
2023/11/30 01:25:01;;;;;;;91.78;36.15;;;;;;;-7.04;85.55;99266.44;1747952;81;25432;-47
2023/11/30 01:27:28;;;;;;;84.40;34.60;;;;;;;-7.05;85.79;99262.20;1758435;81;25487;-47
2023/11/30 01:29:54;;;;;;;82.57;35.43;;;;;;;-7.05;85.60;99266.93;1724562;83;26175;-46
2023/11/30 01:32:21;;;;;;;83.52;32.10;;;;;;;-7.05;85.76;99270.88;1724561;83;25577;-46
2023/11/30 01:34:47;;;;;;;89.80;33.05;;;;;;;-7.04;85.79;99271.18;1755648;81;27320;-46
2023/11/30 01:37:16;;;;;;;76.02;33.42;;;;;;;-7.04;85.81;99269.87;1716194;83;25882;-46
2023/11/30 01:39:43;;;;;;;84.83;36.68;;;;;;;-7.03;86.06;99270.66;1747627;82;25449;-46
2023/11/30 01:42:10;;;;;;;84.37;34.95;;;;;;;-7.02;86.12;99267.02;1747600;82;26290;-47
2023/11/30 01:44:36;;;;;;;99.35;36.50;;;;;;;-7.02;86.09;99266.50;1747659;82;25547;-46
2023/11/30 01:47:04;;;;;;;88.87;35.10;;;;;;;-7.00;86.16;99271.55;1758286;81;27464;-47
2023/11/30 01:49:33;;;;;;;87.33;36.38;;;;;;;-7.00;86.04;99268.42;1724547;83;25543;-46
2023/11/30 01:52:02;;;;;;;86.82;34.58;;;;;;;-7.00;85.86;99270.23;1724524;83;25425;-48
2023/11/30 01:54:29;;;;;;;85.55;35.33;;;;;;;-6.99;85.91;99267.91;1755778;81;25617;-46
2023/11/30 01:56:56;;;;;;;77.95;35.25;;;;;;;-6.98;85.85;99256.34;1716303;83;25668;-47
2023/11/30 01:59:23;;;;;;;88.85;35.98;;;;;;;-6.99;85.77;99254.76;1747611;82;28376;-47
2023/11/30 02:01:51;;;;;;;83.40;36.10;;;;;;;-6.99;85.73;99253.44;1747580;82;25770;-46
2023/11/30 02:04:21;;;;;;;91.57;36.08;;;;;;;-6.99;85.73;99254.76;1724536;83;25369;-46
2023/11/30 02:06:49;;;;;;;96.60;38.17;;;;;;;-6.99;85.70;99250.81;1724498;83;25625;-46
2023/11/30 02:09:16;;;;;;;86.80;36.53;;;;;;;-7.01;85.73;99248.92;1755732;81;25218;-46
2023/11/30 02:11:44;;;;;;;92.75;36.05;;;;;;;-7.02;85.69;99245.98;1716326;83;27321;-47
2023/11/30 02:14:12;;;;;;;90.42;36.28;;;;;;;-7.05;85.66;99245.11;1747556;82;25683;-48
2023/11/30 02:16:40;;;;;;;89.45;36.73;;;;;;;-7.08;85.61;99244.23;1758344;81;25578;-49
2023/11/30 02:19:08;;;;;;;93.70;37.23;;;;;;;-7.08;85.62;99249.48;1724719;83;25687;-47
2023/11/30 02:21:36;;;;;;;93.15;36.53;;;;;;;-7.10;85.77;99245.75;1724540;82;25378;-47
2023/11/30 02:24:03;;;;;;;87.97;35.95;;;;;;;-7.11;85.77;99247.31;1756293;81;27321;-49
2023/11/30 02:26:31;;;;;;;90.55;38.42;;;;;;;-7.13;85.69;99238.33;1759836;81;25796;-49
2023/11/30 02:28:58;;;;;;;92.45;39.03;;;;;;;-7.14;85.82;99239.34;1759925;81;25408;-47
2023/11/30 02:31:27;;;;;;;90.85;37.15;;;;;;;-7.15;85.83;99235.92;1759882;81;26665;-47
2023/11/30 02:33:56;;;;;;;102.15;40.45;;;;;;;-7.17;85.86;99242.40;1759964;81;25399;-49
2023/11/30 02:36:23;;;;;;;90.33;37.10;;;;;;;-7.17;85.94;99247.66;1760193;81;27331;-46
2023/11/30 02:38:51;;;;;;;94.70;36.75;;;;;;;-7.18;85.94;99249.49;1759851;81;25473;-47
2023/11/30 02:41:19;;;;;;;90.65;36.77;;;;;;;-7.18;85.83;99250.80;1715991;83;25536;-46
2023/11/30 02:43:47;;;;;;;100.58;37.80;;;;;;;-7.19;85.85;99245.77;1715964;83;26331;-46
2023/11/30 02:46:15;;;;;;;97.45;35.52;;;;;;;-7.20;85.96;99252.85;1719098;83;25544;-47
2023/11/30 02:48:42;;;;;;;92.27;35.88;;;;;;;-7.19;85.95;99245.77;1719185;83;27971;-46
2023/11/30 02:51:11;;;;;;;87.85;35.88;;;;;;;-7.21;85.98;99244.66;1716030;83;25686;-47
2023/11/30 02:53:38;;;;;;;;;;;;;;;-7.21;86.05;99241.24;1721828;83;25563;-47
2023/11/30 02:56:07;;;;;;;87.08;34.08;;;;;;;-7.21;85.95;99241.24;1719237;83;25626;-46
2023/11/30 02:58:35;;;;;;;92.88;36.20;;;;;;;-7.21;86.13;99243.35;1716264;83;25381;-46
2023/11/30 03:01:04;;;;;;;95.45;37.28;;;;;;;-7.20;86.10;99240.20;1719247;83;27859;-46
2023/11/30 03:03:32;;;;;;;;;;;;;;;-7.20;86.08;99236.26;1694224;83;25811;-47
2023/11/30 03:05:59;;;;;;;98.17;35.70;;;;;;;-7.20;85.94;99235.77;1719214;83;25575;-47
2023/11/30 03:08:27;;;;;;;95.35;36.90;;;;;;;-7.21;86.03;99232.05;1716058;83;26651;-47
2023/11/30 03:10:55;;;;;;;96.63;38.20;;;;;;;-7.21;86.00;99236.78;1719231;83;25558;-46
2023/11/30 03:13:23;;;;;;;97.10;37.95;;;;;;;-7.22;85.92;99233.88;1716263;83;27388;-46
2023/11/30 03:15:50;;;;;;;91.92;36.63;;;;;;;-7.22;86.01;99233.88;1719137;83;25811;-46
2023/11/30 03:18:18;;;;;;;91.08;36.93;;;;;;;-7.22;86.12;99234.37;1716130;83;25632;-47
2023/11/30 03:20:46;;;;;;;89.83;37.28;;;;;;;-7.22;86.11;99237.82;1719165;83;26570;-47
2023/11/30 03:23:14;;;;;;;94.15;38.23;;;;;;;-7.21;86.18;99232.84;1716346;83;25541;-47
2023/11/30 03:25:41;;;;;;;87.57;39.08;;;;;;;-7.20;86.25;99224.44;1715689;82;27763;-47
2023/11/30 03:28:09;;;;;;;103.67;38.98;;;;;;;-7.19;86.25;99222.11;1714207;83;25598;-47
2023/11/30 03:30:36;;;;;;;90.62;37.03;;;;;;;-7.16;86.32;99224.30;1714315;83;25633;-47
2023/11/30 03:33:03;;;;;;;90.40;38.83;;;;;;;-7.16;86.19;99218.53;1714294;83;25633;-47
2023/11/30 03:35:32;;;;;;;96.90;38.28;;;;;;;-7.13;86.27;99222.56;1714366;83;25623;-46
2023/11/30 03:37:59;;;;;;;92.75;37.80;;;;;;;-7.11;86.31;99219.72;1714327;83;27339;-46
2023/11/30 03:40:27;;;;;;;92.47;37.78;;;;;;;-7.11;86.41;99218.41;1714249;83;25619;-48
2023/11/30 03:42:55;;;;;;;97.00;38.42;;;;;;;-7.09;86.52;99218.98;1714465;83;25417;-48
2023/11/30 03:45:23;;;;;;;97.92;36.00;;;;;;;-7.07;86.44;99215.09;1709599;83;26224;-47
2023/11/30 03:47:51;;;;;;;101.47;37.35;;;;;;;-7.05;86.44;99211.73;1714583;83;25639;-47
2023/11/30 03:50:18;;;;;;;86.15;37.08;;;;;;;-7.03;86.38;99203.13;1714301;83;28406;-47
2023/11/30 03:52:46;;;;;;;87.22;35.68;;;;;;;-7.02;86.46;99200.78;1714245;83;25867;-46
2023/11/30 03:55:14;;;;;;;99.95;37.63;;;;;;;-7.00;86.42;99197.93;1714326;83;25593;-46
2023/11/30 03:57:41;;;;;;;95.50;37.40;;;;;;;-6.99;86.32;99211.38;1714362;83;26594;-46
2023/11/30 04:00:14;;;;;;;92.80;37.67;;;;;;;-6.99;86.29;99208.23;1714296;83;25635;-47
2023/11/30 04:02:42;;;;;;;93.40;36.33;;;;;;;-6.99;86.37;99201.66;1714299;83;27578;-47
2023/11/30 04:05:14;;;;;;;89.20;36.73;;;;;;;-6.96;86.52;99210.95;1714383;83;25826;-47
2023/11/30 04:07:43;;;;;;;85.65;36.83;;;;;;;-6.97;86.57;99203.55;1714312;83;25446;-46
2023/11/30 04:10:14;;;;;;;90.07;35.67;;;;;;;-6.96;86.61;99205.16;1663055;83;26166;-48
2023/11/30 04:12:42;;;;;;;91.30;35.73;;;;;;;-6.95;86.64;99205.47;1723833;83;25636;-47
2023/11/30 04:15:10;;;;;;;92.17;38.17;;;;;;;-6.93;86.83;99209.16;1696453;84;27953;-48
2023/11/30 04:17:39;;;;;;;91.82;38.05;;;;;;;-6.91;86.90;99205.00;1696324;83;25685;-46
2023/11/30 04:20:09;;;;;;;84.67;37.28;;;;;;;-6.89;86.95;99201.14;1696356;84;25400;-47
2023/11/30 04:22:36;;;;;;;90.72;37.20;;;;;;;-6.86;87.09;99202.02;1696312;84;25656;-48
2023/11/30 04:25:06;;;;;;;93.82;37.35;;;;;;;-6.82;87.14;99203.17;1704701;83;25614;-49
2023/11/30 04:27:33;;;;;;;93.12;37.38;;;;;;;-6.78;87.45;99200.90;1747802;82;26840;-48
2023/11/30 04:30:01;;;;;;;88.55;35.75;;;;;;;-6.72;87.48;99209.72;1747598;82;25795;-48
2023/11/30 04:32:28;;;;;;;89.62;35.70;;;;;;;-6.71;87.65;99197.66;1758355;81;25123;-49
2023/11/30 04:34:56;;;;;;;85.50;35.60;;;;;;;-6.63;87.82;99198.67;1758349;81;26623;-48
2023/11/30 04:37:24;;;;;;;85.77;35.30;;;;;;;-6.56;87.89;99199.91;1747727;82;25577;-48
2023/11/30 04:39:53;;;;;;;89.80;38.40;;;;;;;-6.52;87.91;99202.39;1747902;82;28114;-48
2023/11/30 04:42:22;;;;;;;87.82;36.42;;;;;;;-6.47;87.91;99206.47;1724484;83;25631;-48
2023/11/30 04:44:50;;;;;;;82.83;35.53;;;;;;;-6.43;88.04;99197.61;1724784;83;25484;-48
2023/11/30 04:47:18;;;;;;;90.57;36.13;;;;;;;-6.37;88.19;99195.91;1755765;81;26430;-48
2023/11/30 04:49:44;;;;;;;87.95;36.17;;;;;;;-6.34;88.26;99194.94;1716371;83;25483;-48
2023/11/30 04:52:13;;;;;;;88.50;37.53;;;;;;;-6.28;88.33;99190.59;1747628;82;27288;-48
2023/11/30 04:54:40;;;;;;;84.22;36.25;;;;;;;-6.23;88.51;99186.77;1747603;82;25622;-51
2023/11/30 04:57:09;;;;;;;88.75;37.25;;;;;;;-6.15;88.64;99193.03;1724604;83;25517;-48
2023/11/30 04:59:39;;;;;;;89.25;37.73;;;;;;;-6.11;88.79;99182.36;1724764;83;25439;-48
2023/11/30 05:02:08;;;;;;;88.17;37.48;;;;;;;-6.07;88.83;99172.97;1755805;81;25526;-48
2023/11/30 05:04:37;;;;;;;;;;;;;;;-5.96;88.96;99187.69;1718871;83;28376;-49
2023/11/30 05:07:05;;;;;;;85.15;36.53;;;;;;;-5.91;89.04;99190.41;1747563;82;25388;-51
2023/11/30 05:09:32;;;;;;;77.92;36.13;;;;;;;-5.87;89.21;99182.36;1747661;82;25635;-47
2023/11/30 05:12:00;;;;;;;84.17;35.68;;;;;;;-5.79;89.20;99191.21;1747573;82;25945;-47
2023/11/30 05:14:27;;;;;;;84.28;37.63;;;;;;;-5.74;89.24;99191.33;1747667;82;25562;-47
2023/11/30 05:16:53;;;;;;;87.70;36.73;;;;;;;-5.67;89.34;99188.58;1747626;82;27738;-47
2023/11/30 05:19:20;;;;;;;86.80;38.08;;;;;;;-5.61;89.41;99191.63;1747552;82;25369;-48
2023/11/30 05:21:46;;;;;;;91.63;36.83;;;;;;;-5.56;89.33;99191.73;1747640;82;25599;-47
2023/11/30 05:24:13;;;;;;;84.92;35.88;;;;;;;-5.52;89.27;99192.08;1758309;81;25956;-48
2023/11/30 05:26:39;;;;;;;89.90;36.93;;;;;;;-5.47;89.26;99187.71;1762252;81;25395;-48
2023/11/30 05:29:07;;;;;;;91.60;36.20;;;;;;;-5.42;89.27;99182.28;1731384;81;27882;-48
2023/11/30 05:31:34;;;;;;;90.03;36.33;;;;;;;-5.38;89.30;99188.19;1763145;81;25537;-50
2023/11/30 05:34:02;;;;;;;84.90;36.60;;;;;;;-5.33;89.24;99192.25;1730770;81;25575;-49
2023/11/30 05:36:30;;;;;;;88.15;36.23;;;;;;;-5.30;89.21;99192.28;1763513;81;26369;-48
2023/11/30 05:38:56;;;;;;;90.72;36.42;;;;;;;-5.26;89.42;99197.40;1763230;81;25411;-51
2023/11/30 05:41:23;;;;;;;85.32;36.20;;;;;;;-5.21;89.33;99201.95;1763173;81;27347;-50
2023/11/30 05:43:49;;;;;;;89.47;35.10;;;;;;;-5.16;89.45;99203.38;1763140;81;25637;-51
2023/11/30 05:46:19;;;;;;;75.67;34.63;;;;;;;-5.15;89.43;99195.77;1763173;81;25368;-48
2023/11/30 05:48:46;;;;;;;84.58;35.98;;;;;;;-5.09;89.38;99197.45;1763308;81;25357;-46
2023/11/30 05:51:14;;;;;;;87.85;36.60;;;;;;;-5.05;89.39;99197.81;1763211;81;25383;-48
2023/11/30 05:53:40;;;;;;;85.65;36.77;;;;;;;-5.04;89.28;99198.09;1763211;81;28005;-47
2023/11/30 05:56:09;;;;;;;81.97;35.75;;;;;;;-5.00;89.29;99193.97;1763098;81;25590;-46
2023/11/30 05:58:37;;;;;;;87.42;34.67;;;;;;;-4.99;89.23;99200.30;1763324;81;25448;-47
2023/11/30 06:01:06;;;;;;;85.32;36.55;;;;;;;-4.99;89.31;99193.70;1763236;81;25425;-50
2023/11/30 06:03:33;;;;;;;61.45;27.35;;;;;;;-5.02;89.28;99192.87;1763321;81;25566;-47
2023/11/30 06:05:59;;;;;;;78.35;33.48;;;;;;;-4.99;89.29;99195.02;1763145;81;27218;-47
2023/11/30 06:08:28;;;;;;;80.17;37.13;;;;;;;-4.99;89.13;99191.59;1763076;81;25973;-47
2023/11/30 06:10:55;;;;;;;83.47;36.88;;;;;;;-4.98;89.06;99197.16;1731244;81;25432;-48
2023/11/30 06:13:24;;;;;;;81.97;34.70;;;;;;;-4.99;89.05;99198.19;1763135;81;25538;-47
2023/11/30 06:15:56;;;;;;;83.20;34.45;;;;;;;-4.99;89.06;99197.66;1763271;80;25451;-47
2023/11/30 06:18:20;;;;;;;85.22;35.20;;;;;;;-5.00;89.02;99194.75;1762413;81;27655;-49
2023/11/30 06:20:48;;;;;;;86.63;37.35;;;;;;;-4.98;89.05;99203.76;1763077;81;25594;-47
2023/11/30 06:23:15;;;;;;;79.17;35.38;;;;;;;-4.97;89.04;99204.02;1763343;81;25606;-47
2023/11/30 06:25:44;;;;;;;87.02;37.00;;;;;;;-4.96;89.07;99206.43;1758680;81;26063;-47
2023/11/30 06:28:11;;;;;;;80.50;34.10;;;;;;;-4.97;88.99;99207.48;1747292;82;25408;-46
2023/11/30 06:30:38;;;;;;;88.37;36.13;;;;;;;-4.98;88.91;99209.83;1747223;82;27679;-48
2023/11/30 06:33:05;;;;;;;79.42;34.67;;;;;;;-4.97;88.99;99204.02;1747155;82;25459;-49
2023/11/30 06:35:32;;;;;;;72.82;33.75;;;;;;;-4.96;89.06;99207.75;1747219;82;25434;-48
2023/11/30 06:37:58;;;;;;;84.45;36.58;;;;;;;-4.97;89.09;99204.84;1747180;82;25629;-48
2023/11/30 06:40:24;;;;;;;86.75;37.55;;;;;;;-4.95;89.21;99204.09;1747250;82;25546;-47
2023/11/30 06:42:51;;;;;;;90.80;39.58;;;;;;;-4.92;89.35;99204.12;1747261;82;27835;-48
2023/11/30 06:45:17;;;;;;;91.80;38.50;;;;;;;-4.93;89.24;99194.09;1747149;82;25562;-48
2023/11/30 06:47:46;;;;;;;83.65;35.83;;;;;;;-4.92;89.29;99203.63;1747195;81;25595;-48
2023/11/30 06:50:12;;;;;;;91.70;41.00;;;;;;;-4.89;89.12;99209.77;1747209;82;25631;-49
2023/11/30 06:52:39;;;;;;;81.80;35.55;;;;;;;-4.90;89.11;99206.03;1747231;82;25400;-48
2023/11/30 06:55:08;;;;;;;85.72;34.90;;;;;;;-4.92;89.13;99206.27;1747248;82;28002;-48
2023/11/30 06:57:35;;;;;;;82.27;37.20;;;;;;;-4.91;89.07;99209.70;1747283;81;25413;-50
2023/11/30 07:00:10;;;;;;;78.87;34.80;;;;;;;-4.92;89.13;99210.22;1743125;82;25567;-48
2023/11/30 07:02:38;;;;;;;79.22;34.65;;;;;;;-4.91;89.06;99212.33;1747224;82;25703;-48
2023/11/30 07:05:08;;;;;;;82.00;36.30;;;;;;;-4.91;89.02;99212.33;1747332;82;25609;-48
2023/11/30 07:07:34;;;;;;;89.22;35.48;;;;;;;-4.91;89.20;99214.45;1746038;82;27310;-48
2023/11/30 07:10:04;;;;;;;80.42;37.63;;;;;;;-4.88;89.24;99218.47;1745798;82;25697;-48
2023/11/30 07:12:30;;;;;;;;;;;;;;;-4.86;89.41;99215.07;1749858;82;25445;-48
2023/11/30 07:14:56;;;;;;;80.30;34.05;;;;;;;-4.86;89.49;99207.69;1747182;82;25591;-48
2023/11/30 07:17:23;;;;;;;80.28;35.40;;;;;;;-4.81;89.61;99212.53;1747306;82;25548;-49
2023/11/30 07:19:53;;;;;;;85.95;37.08;;;;;;;-4.76;89.82;99210.52;1747281;82;27409;-47
2023/11/30 07:22:20;;;;;;;81.92;35.48;;;;;;;-4.71;89.91;99221.97;1747109;82;25542;-49
2023/11/30 07:24:48;;;;;;;87.95;37.28;;;;;;;-4.67;89.89;99228.09;1747254;81;25605;-47
2023/11/30 07:27:20;;;;;;;83.70;35.75;;;;;;;-4.63;90.10;99226.08;1747014;81;26163;-46
2023/11/30 07:29:48;;;;;;;85.57;37.15;;;;;;;-4.56;90.37;99228.58;1721880;82;25359;-46
2023/11/30 07:32:15;;;;;;;83.00;36.53;;;;;;;-4.50;90.38;99223.66;1747211;82;27317;-47
2023/11/30 07:34:46;;;;;;;78.50;36.30;;;;;;;-4.44;90.44;99223.23;1747066;82;25574;-46
2023/11/30 07:37:17;;;;;;;88.25;38.02;;;;;;;-4.37;90.51;99227.88;1747391;82;25613;-47
2023/11/30 07:39:44;;;;;;;84.25;37.95;;;;;;;-4.37;90.46;99220.74;1721765;82;25575;-46
2023/11/30 07:42:11;;;;;;;92.30;38.48;;;;;;;-4.28;90.55;99223.80;1747197;82;25570;-49
2023/11/30 07:44:39;;;;;;;84.90;37.95;;;;;;;-4.22;90.73;99222.86;1747223;82;27731;-48
2023/11/30 07:47:08;;;;;;;84.97;38.33;;;;;;;-4.16;90.77;99223.21;1747068;82;25390;-48
2023/11/30 07:49:34;;;;;;;85.20;37.50;;;;;;;-4.10;90.86;99229.40;1747444;82;25573;-48
2023/11/30 07:52:01;;;;;;;72.08;34.35;;;;;;;-4.06;90.86;99228.40;1747136;82;25667;-49
2023/11/30 07:54:27;;;;;;;74.42;34.92;;;;;;;-4.01;90.91;99237.73;1747208;81;25600;-50
2023/11/30 07:56:54;;;;;;;80.67;35.33;;;;;;;-3.97;91.03;99237.52;1747262;81;27312;-47
2023/11/30 07:59:20;;;;;;;73.33;34.03;;;;;;;-3.87;91.25;99239.54;1747178;82;25416;-48
2023/11/30 08:01:47;;;;;;;81.12;37.67;;;;;;;-3.83;91.28;99236.69;1747208;81;25610;-49
2023/11/30 08:04:13;;;;;;;80.65;34.95;;;;;;;-3.76;91.32;99247.39;1747131;82;25601;-46
2023/11/30 08:06:42;;;;;;;75.52;33.80;;;;;;;-3.69;91.24;99239.31;1747191;82;25530;-47
2023/11/30 08:09:08;;;;;;;79.32;36.45;;;;;;;-3.65;91.23;99236.45;1747236;82;27321;-47
2023/11/30 08:11:37;;;;;;;82.60;35.70;;;;;;;-3.59;91.33;99233.38;1747103;82;25380;-48
2023/11/30 08:14:03;;;;;;;76.67;33.30;;;;;;;-3.54;91.34;99240.07;1747276;82;25563;-49
2023/11/30 08:16:30;;;;;;;82.92;35.23;;;;;;;-3.51;91.35;99234.80;1747240;82;25995;-47
2023/11/30 08:18:58;;;;;;;77.50;35.10;;;;;;;-3.45;91.34;99240.45;1747233;81;25540;-49
2023/11/30 08:21:24;;;;;;;75.95;33.90;;;;;;;-3.42;91.44;99238.13;1747146;82;27317;-47
2023/11/30 08:23:53;;;;;;;77.78;36.03;;;;;;;-3.34;91.43;99248.00;1747064;82;25589;-50
2023/11/30 08:26:20;;;;;;;71.97;34.77;;;;;;;-3.28;91.47;99243.08;1750213;81;25842;-47
2023/11/30 08:28:50;;;;;;;75.28;34.43;;;;;;;-3.26;91.35;99248.39;1758380;81;26238;-47
2023/11/30 08:31:16;;;;;;;69.55;33.42;;;;;;;-3.22;91.36;99256.64;1724631;83;25413;-47
2023/11/30 08:33:44;;;;;;;73.72;35.65;;;;;;;-3.20;91.42;99250.07;1724611;83;28265;-47
2023/11/30 08:36:13;;;;;;;77.95;34.00;;;;;;;-3.14;91.40;99256.22;1755700;81;25567;-47
2023/11/30 08:38:40;;;;;;;71.87;35.38;;;;;;;-3.08;91.33;99252.61;1716460;83;25596;-48
2023/11/30 08:41:09;;;;;;;69.92;33.15;;;;;;;-3.02;91.45;99256.12;1747654;82;25617;-49
2023/11/30 08:43:35;;;;;;;73.28;35.28;;;;;;;-2.93;91.47;99259.14;1724747;83;25647;-48
2023/11/30 08:46:05;;;;;;;73.45;36.15;;;;;;;-2.83;91.61;99260.09;1724585;83;27283;-46
2023/11/30 08:48:33;;;;;;;82.33;37.75;;;;;;;-2.72;91.59;99262.86;1755768;81;25671;-46
2023/11/30 08:51:00;;;;;;;115.12;56.90;;;;;;;-2.58;92.10;99268.58;1755715;81;25494;-45
2023/11/30 08:53:28;;;;;;;79.42;36.80;;;;;;;-2.45;91.79;99270.31;1755736;81;26635;-46
2023/11/30 08:55:54;;;;;;;79.15;36.33;;;;;;;-2.25;92.72;99270.25;1755192;81;25585;-47
2023/11/30 08:58:23;;;;;;;82.88;38.13;;;;;;;-1.97;93.32;99276.37;1755673;81;27322;-45
2023/11/30 09:00:49;;;;;;;75.40;37.03;;;;;;;-1.63;94.26;99273.48;1755596;81;25537;-48
2023/11/30 09:03:16;;;;;;;78.57;37.63;;;;;;;-1.25;94.64;99271.63;1755648;81;25455;-48
2023/11/30 09:05:46;;;;;;;72.03;35.85;;;;;;;-1.02;92.71;99268.59;1755656;81;26214;-49
2023/11/30 09:08:12;;;;;;;72.22;35.25;;;;;;;-0.91;91.32;99272.62;1716348;83;25693;-49
2023/11/30 09:10:39;;;;;;;65.72;33.85;;;;;;;-0.76;90.90;99270.03;1717667;82;27511;-47
2023/11/30 09:13:08;;;;;;;67.15;34.35;;;;;;;-0.44;92.59;99271.77;1758317;81;25433;-47
2023/11/30 09:15:36;;;;;;;68.20;33.58;;;;;;;-0.23;90.91;99274.73;1747704;82;25597;-47
2023/11/30 09:18:04;;;;;;;67.47;34.18;;;;;;;0.00;89.69;99270.01;1758259;81;25602;-47
2023/11/30 09:20:30;;;;;;;68.17;34.73;;;;;;;0.21;89.45;99268.70;1758481;81;25448;-48
2023/11/30 09:22:57;;;;;;;64.62;32.55;;;;;;;0.50;88.39;99267.09;1747610;82;28371;-47
2023/11/30 09:25:24;;;;;;;65.17;34.45;;;;;;;0.82;88.75;99258.00;1747594;82;25401;-48
2023/11/30 09:27:50;;;;;;;64.53;34.23;;;;;;;1.16;88.57;99261.37;1753101;81;25420;-50
2023/11/30 09:30:17;;;;;;;71.05;36.63;;;;;;;1.58;89.24;99248.13;1729175;83;25616;-48
2023/11/30 09:32:45;;;;;;;63.15;33.92;;;;;;;2.16;89.99;99248.03;1729205;83;25372;-48
2023/11/30 09:35:12;;;;;;;63.17;34.13;;;;;;;2.69;87.68;99248.66;1729225;83;27313;-48
2023/11/30 09:37:38;;;;;;;61.80;33.73;;;;;;;3.02;85.37;99237.64;1763101;81;25521;-50
2023/11/30 09:40:09;;;;;;;65.25;35.90;;;;;;;3.28;85.37;99236.00;1763210;81;25407;-48
2023/11/30 09:42:35;;;;;;;61.90;33.20;;;;;;;3.59;83.87;99235.06;1763211;81;25618;-48
2023/11/30 09:45:07;;;;;;;58.40;33.33;;;;;;;4.15;86.01;99230.78;1763222;81;25629;-49
2023/11/30 09:47:35;;;;;;;58.73;32.70;;;;;;;4.59;81.81;99232.19;1731895;81;26931;-49
2023/11/30 09:50:05;;;;;;;54.70;31.80;;;;;;;4.61;79.19;99228.67;1763115;81;26084;-49
2023/11/30 09:52:32;;;;;;;58.13;32.05;;;;;;;4.85;80.89;99226.38;1763268;80;25663;-48
2023/11/30 09:55:01;;;;;;;56.63;31.95;;;;;;;5.16;77.74;99228.45;1731235;81;25627;-48
2023/11/30 09:57:28;;;;;;;56.08;31.62;;;;;;;5.00;76.55;99219.38;1763419;81;25585;-50
2023/11/30 09:59:55;;;;;;;54.27;30.85;;;;;;;4.75;74.94;99230.58;1763285;81;27330;-48
2023/11/30 10:02:25;;;;;;;50.52;30.35;;;;;;;4.36;73.52;99219.21;1763076;81;25507;-49
2023/11/30 10:04:52;;;;;;;52.43;29.70;;;;;;;3.98;73.36;99207.22;1763344;81;25467;-50
2023/11/30 10:07:18;;;;;;;49.50;30.45;;;;;;;3.74;73.56;99216.68;1763112;81;26178;-50
2023/11/30 10:09:45;;;;;;;58.45;30.72;;;;;;;3.91;76.08;99206.25;1763212;81;25395;-48
2023/11/30 10:12:14;;;;;;;55.48;30.75;;;;;;;3.82;74.64;99199.98;1763256;81;28334;-47
2023/11/30 10:14:42;;;;;;;55.17;32.63;;;;;;;4.20;78.80;99197.23;1763224;81;25434;-49
2023/11/30 10:17:10;;;;;;;56.63;29.82;;;;;;;4.69;77.96;99188.36;1763224;81;25413;-47
2023/11/30 10:19:38;;;;;;;50.35;29.87;;;;;;;4.76;75.66;99188.76;1763164;81;26776;-48
2023/11/30 10:22:05;;;;;;;54.85;29.98;;;;;;;4.47;73.35;99197.84;1763212;81;25459;-48
2023/11/30 10:24:31;;;;;;;52.15;30.00;;;;;;;4.45;74.24;99196.02;1763189;81;28353;-47
2023/11/30 10:27:05;;;;;;;54.00;31.60;;;;;;;4.39;73.82;99187.02;1730269;81;25587;-48
2023/11/30 10:29:37;;;;;;;61.55;33.28;;;;;;;4.25;72.34;99187.00;1760782;81;25620;-48
2023/11/30 10:32:07;;;;;;;55.43;32.42;;;;;;;3.86;71.57;99188.16;1760774;81;25642;-49
2023/11/30 10:34:39;;;;;;;53.33;30.35;;;;;;;3.46;71.85;99176.98;1760801;81;25610;-48
2023/11/30 10:37:07;;;;;;;49.90;30.50;;;;;;;3.28;72.39;99181.21;1760566;81;27239;-46
2023/11/30 10:39:40;;;;;;;53.42;31.50;;;;;;;3.34;73.89;99178.19;1760602;81;25743;-48
2023/11/30 10:42:13;;;;;;;52.95;30.75;;;;;;;3.59;73.95;99180.80;1760800;81;25588;-51
2023/11/30 10:44:45;;;;;;;55.98;31.42;;;;;;;3.40;73.30;99176.78;1759792;81;26622;-49
2023/11/30 10:47:14;;;;;;;52.80;29.57;;;;;;;3.24;72.94;99175.66;1760835;81;25583;-48
2023/11/30 10:49:43;;;;;;;49.18;30.45;;;;;;;3.01;73.32;99176.48;1760924;81;27697;-51
2023/11/30 10:52:13;;;;;;;50.67;28.95;;;;;;;2.73;73.07;99175.72;1760656;81;25560;-48
2023/11/30 10:55:09;;;;;;;52.73;29.85;;;;;;;2.43;73.25;99183.49;1760839;81;25609;-52
2023/11/30 10:57:44;;;;;;;48.87;28.23;;;;;;;2.23;73.58;99181.28;1760827;81;25925;-51
2023/11/30 11:00:17;;;;;;;49.33;28.83;;;;;;;1.92;73.89;99178.05;1760817;81;25417;-48
2023/11/30 11:02:47;;;;;;;47.15;28.42;;;;;;;1.69;74.51;99187.57;1760742;81;27378;-49
2023/11/30 11:05:18;;;;;;;49.53;27.77;;;;;;;1.44;75.07;99175.98;1760656;81;25575;-48
2023/11/30 11:07:49;;;;;;;52.55;29.27;;;;;;;1.34;75.96;99180.58;1760027;81;25400;-48
2023/11/30 11:10:32;;;;;;;50.40;29.87;;;;;;;1.22;76.47;99183.02;1760821;81;26320;-49
2023/11/30 11:13:02;;;;;;;49.48;30.02;;;;;;;1.18;76.95;99182.53;1757865;81;25617;-49
2023/11/30 11:15:31;;;;;;;53.73;29.50;;;;;;;1.11;77.13;99186.82;1761106;81;27696;-51
2023/11/30 11:18:04;;;;;;;50.20;28.55;;;;;;;0.99;77.45;99194.30;1760804;81;26151;-48
2023/11/30 11:20:35;;;;;;;52.70;28.47;;;;;;;0.85;77.79;99188.25;1760913;81;25461;-48
2023/11/30 11:23:09;;;;;;;48.30;27.73;;;;;;;0.76;78.29;99191.19;1725835;81;25505;-49